createdAt,value
2018-02-06T00:00:57.781Z,95448.04
2018-02-06T00:03:26.900Z,95445.85
2018-02-06T00:05:59.538Z,95451.59
2018-02-06T00:08:28.586Z,95442.74
2018-02-06T00:10:57.633Z,95435.56
2018-02-06T00:13:26.709Z,95432.41
2018-02-06T00:18:37.538Z,95429.70
2018-02-06T00:23:57.586Z,95420.77
2018-02-06T00:26:26.683Z,95419.61
2018-02-06T00:29:10.674Z,95418.44
2018-02-06T00:31:39.730Z,95420.08
2018-02-06T00:37:00.076Z,95411.11
2018-02-06T00:39:29.251Z,95410.33
2018-02-06T00:44:36.966Z,95400.25
2018-02-06T00:47:06.118Z,95396.52
2018-02-06T00:49:35.168Z,95402.34
2018-02-06T00:52:04.267Z,95403.83
2018-02-06T00:54:33.322Z,95399.98
2018-02-06T00:57:02.392Z,95399.08
2018-02-06T00:59:31.431Z,95398.80
2018-02-06T01:02:00.577Z,95400.35
2018-02-06T01:04:29.673Z,95396.16
2018-02-06T01:06:58.865Z,95401.11
2018-02-06T01:09:27.973Z,95394.78
2018-02-06T01:12:02.951Z,95391.55
2018-02-06T01:14:31.969Z,95379.69
2018-02-06T01:17:01.021Z,95377.55
2018-02-06T01:19:30.073Z,95380.06
2018-02-06T01:21:59.172Z,95383.25
2018-02-06T01:24:28.425Z,95376.77
2018-02-06T01:26:57.492Z,95374.84
2018-02-06T01:29:26.561Z,95374.31
2018-02-06T01:31:55.870Z,95374.86
2018-02-06T01:34:24.937Z,95365.09
2018-02-06T01:36:53.995Z,95368.97
2018-02-06T01:39:23.087Z,95374.20
2018-02-06T01:41:52.205Z,95368.69
2018-02-06T01:44:21.468Z,95374.19
2018-02-06T01:46:50.961Z,95369.23
2018-02-06T01:49:20.036Z,95365.00
2018-02-06T01:51:49.094Z,95359.73
2018-02-06T01:54:18.209Z,95362.29
2018-02-06T01:56:47.234Z,95357.12
2018-02-06T01:59:19.342Z,95354.11
2018-02-06T02:01:48.732Z,95344.37
2018-02-06T02:06:55.302Z,95345.27
2018-02-06T02:09:29.422Z,95348.70
2018-02-06T02:11:58.473Z,95348.16
2018-02-06T02:17:25.781Z,95348.17
2018-02-06T02:19:54.838Z,95348.19
2018-02-06T02:25:04.554Z,95340.34
2018-02-06T02:27:34.515Z,95335.28
2018-02-06T02:30:40.933Z,95335.31
2018-02-06T02:33:10.004Z,95330.89
2018-02-06T02:35:41.371Z,95325.03
2018-02-06T02:38:34.638Z,95321.92
2018-02-06T04:42:30.407Z,95228.78
2018-02-06T04:45:03.181Z,95229.62
2018-02-06T04:47:32.217Z,95227.02
2018-02-06T04:50:06.704Z,95227.77
2018-02-06T04:52:35.758Z,95221.44
2018-02-06T04:55:31.131Z,95216.53
2018-02-06T04:58:31.145Z,95215.79
2018-02-06T05:01:10.637Z,95222.14
2018-02-06T05:03:39.692Z,95218.02
2018-02-06T05:08:45.652Z,95216.15
2018-02-06T05:13:56.882Z,95200.73
2018-02-06T05:19:10.070Z,95198.92
2018-02-06T05:21:43.677Z,95191.24
2018-02-06T05:24:12.705Z,95183.09
2018-02-06T05:26:53.726Z,95184.45
2018-02-06T05:29:26.611Z,95181.36
2018-02-06T05:31:55.680Z,95180.09
2018-02-06T05:34:24.745Z,95174.13
2018-02-06T05:39:49.757Z,95177.45
2018-02-06T05:42:35.769Z,95177.91
2018-02-06T05:45:04.834Z,95169.89
2018-02-06T05:50:10.078Z,95164.52
2018-02-06T05:52:52.202Z,95166.94
2018-02-06T05:55:34.205Z,95169.23
2018-02-06T05:58:03.297Z,95169.13
2018-02-06T06:00:36.038Z,95168.08
2018-02-06T06:03:05.088Z,95161.05
2018-02-06T06:05:36.200Z,95160.94
2018-02-06T06:08:05.248Z,95154.53
2018-02-06T06:10:34.277Z,95162.63
2018-02-06T06:13:03.346Z,95162.53
2018-02-06T06:15:35.798Z,95159.55
2018-02-06T06:18:04.851Z,95164.75
2018-02-06T06:20:47.501Z,95161.13
2018-02-06T06:23:16.552Z,95157.16
2018-02-06T06:25:53.758Z,95155.36
2018-02-06T06:28:23.741Z,95158.32
2018-02-06T06:30:53.705Z,95157.94
2018-02-06T06:33:22.749Z,95152.87
2018-02-06T06:38:46.926Z,95151.61
2018-02-06T06:41:15.973Z,95153.64
2018-02-06T06:43:45.045Z,95148.64
2018-02-06T06:46:14.213Z,95145.14
2018-02-06T06:48:43.222Z,95149.47
2018-02-06T06:51:12.284Z,95151.25
2018-02-06T06:53:41.341Z,95149.73
2018-02-06T06:56:10.399Z,95151.23
2018-02-06T06:58:39.445Z,95144.24
2018-02-06T07:03:43.708Z,95144.39
2018-02-06T07:06:12.859Z,95142.92
2018-02-06T07:08:47.077Z,95146.06
2018-02-06T07:13:52.353Z,95153.41
2018-02-06T07:16:21.433Z,95156.98
2018-02-06T07:18:50.532Z,95147.59
2018-02-06T07:21:19.623Z,95139.00
2018-02-06T07:23:48.695Z,95140.77
2018-02-06T07:26:17.753Z,95128.06
2018-02-06T07:28:46.797Z,95128.85
2018-02-06T07:31:15.844Z,95125.47
2018-02-06T07:33:44.901Z,95119.44
2018-02-06T07:36:13.954Z,95116.78
2018-02-06T07:38:43.023Z,95116.06
2018-02-06T07:41:12.072Z,95113.87
2018-02-06T07:43:41.141Z,95118.01
2018-02-06T07:46:10.200Z,95112.97
2018-02-06T07:48:39.281Z,95111.88
2018-02-06T07:51:16.173Z,95111.41
2018-02-06T07:53:45.317Z,95113.30
2018-02-06T07:56:14.387Z,95113.66
2018-02-06T07:58:43.433Z,95113.63
2018-02-06T08:01:12.504Z,95112.68
2018-02-06T08:03:41.584Z,95107.53
2018-02-06T08:06:10.629Z,95109.23
2018-02-06T08:08:39.695Z,95104.83
2018-02-06T08:11:08.749Z,95103.89
2018-02-06T08:13:37.804Z,95097.36
2018-02-06T08:16:06.846Z,95094.52
2018-02-06T08:18:35.893Z,95088.85
2018-02-06T08:21:04.953Z,95080.84
2018-02-06T08:23:34.046Z,95080.64
2018-02-06T08:26:03.205Z,95080.95
2018-02-06T08:28:32.295Z,95087.39
2018-02-06T08:31:01.317Z,95085.28
2018-02-06T08:36:08.701Z,95080.27
2018-02-06T08:38:38.667Z,95078.17
2018-02-06T08:41:07.884Z,95077.43
2018-02-06T08:43:37.496Z,95074.42
2018-02-06T08:46:06.564Z,95071.11
2018-02-06T08:48:35.625Z,95067.47
2018-02-06T08:51:04.666Z,95072.21
2018-02-06T08:53:33.720Z,95074.32
2018-02-06T08:56:02.771Z,95073.55
2018-02-06T08:58:31.822Z,95067.33
2018-02-06T09:01:00.957Z,95058.83
2018-02-06T09:03:30.067Z,95060.81
2018-02-06T09:06:02.523Z,95057.21
2018-02-06T09:08:31.657Z,95047.69
2018-02-06T09:11:00.758Z,95049.09
2018-02-06T09:13:29.803Z,95054.31
2018-02-06T09:15:58.852Z,95054.85
2018-02-06T09:18:27.910Z,95045.54
2018-02-06T09:20:56.952Z,95044.27
2018-02-06T09:23:26.030Z,95041.52
2018-02-06T09:25:55.038Z,95037.76
2018-02-06T09:30:59.129Z,95036.98
2018-02-06T09:33:28.178Z,95026.47
2018-02-06T09:35:57.235Z,95018.83
2018-02-06T09:38:26.258Z,95021.50
2018-02-06T09:43:30.483Z,95017.30
2018-02-06T09:45:59.517Z,95017.92
2018-02-06T09:48:28.592Z,95025.13
2018-02-06T09:50:57.612Z,95014.52
2018-02-06T09:53:27.559Z,95013.05
2018-02-06T09:55:56.589Z,95009.63
2018-02-06T09:58:26.267Z,95009.34
2018-02-06T10:00:55.310Z,95009.42
2018-02-06T10:05:59.637Z,94999.73
2018-02-06T10:08:28.673Z,94996.48
2018-02-06T10:10:57.708Z,94994.77
2018-02-06T10:13:27.029Z,94995.36
2018-02-06T10:15:56.428Z,94996.01
2018-02-06T10:18:25.976Z,94996.80
2018-02-06T10:20:56.025Z,94993.82
2018-02-06T10:23:25.063Z,94996.66
2018-02-06T10:25:54.112Z,94992.80
2018-02-06T10:28:23.183Z,94992.02
2018-02-06T10:33:27.901Z,94988.06
2018-02-06T10:35:56.944Z,94988.09
2018-02-06T10:38:25.991Z,94980.31
2018-02-06T10:40:55.053Z,94975.50
2018-02-06T10:43:24.095Z,94967.83
2018-02-06T10:45:53.128Z,94967.14
2018-02-06T10:48:22.298Z,94964.24
2018-02-06T10:50:51.312Z,94961.75
2018-02-06T10:55:55.596Z,94954.23
2018-02-06T10:58:24.660Z,94941.66
2018-02-06T11:00:53.717Z,94933.90
2018-02-06T11:03:22.752Z,94932.42
2018-02-06T11:05:51.855Z,94934.69
2018-02-06T11:08:20.845Z,94931.03
2018-02-06T11:13:25.136Z,94935.89
2018-02-06T11:15:54.172Z,94928.06
2018-02-06T11:18:23.232Z,94924.56
2018-02-06T11:20:52.285Z,94922.51
2018-02-06T11:25:57.658Z,94909.91
2018-02-06T11:28:26.700Z,94908.34
2018-02-06T11:30:55.741Z,94904.45
2018-02-06T11:33:24.781Z,94899.46
2018-02-06T11:35:53.826Z,94897.41
2018-02-06T11:43:33.338Z,94884.66
2018-02-06T11:46:02.397Z,94881.55
2018-02-06T11:48:31.448Z,94884.63
2018-02-06T11:51:00.504Z,94877.79
2018-02-06T11:53:29.561Z,94876.04
2018-02-06T11:55:58.602Z,94875.96
2018-02-06T11:58:27.674Z,94873.61
2018-02-06T12:00:56.712Z,94867.41
2018-02-06T12:06:00.969Z,94864.46
2018-02-06T12:08:30.036Z,94864.02
2018-02-06T12:10:59.065Z,94867.28
2018-02-06T12:13:28.125Z,94862.05
2018-02-06T12:15:57.189Z,94863.98
2018-02-06T12:18:26.230Z,94864.59
2018-02-06T12:20:55.275Z,94864.13
2018-02-06T12:23:24.418Z,94861.75
2018-02-06T12:25:53.450Z,94856.31
2018-02-06T12:28:22.498Z,94855.23
2018-02-06T12:30:51.551Z,94847.11
2018-02-06T12:33:20.612Z,94846.92
2018-02-06T12:35:49.653Z,94835.55
2018-02-06T12:38:18.713Z,94828.30
2018-02-06T12:40:47.751Z,94824.41
2018-02-06T12:43:16.805Z,94820.69
2018-02-06T12:45:47.613Z,94817.59
2018-02-06T12:50:52.933Z,94816.23
2018-02-06T12:53:21.973Z,94808.30
2018-02-06T12:55:51.018Z,94809.09
2018-02-06T12:58:20.073Z,94802.51
2018-02-06T13:00:49.165Z,94805.27
2018-02-06T13:03:18.200Z,94796.98
2018-02-06T13:05:52.560Z,94798.95
2018-02-06T13:08:21.855Z,94792.64
2018-02-06T13:10:50.904Z,94788.91
2018-02-06T13:13:20.013Z,94781.83
2018-02-06T13:15:49.048Z,94782.55
2018-02-06T13:18:18.078Z,94784.50
2018-02-06T13:20:47.120Z,94781.02
2018-02-06T13:23:16.174Z,94778.64
2018-02-06T13:25:45.213Z,94780.39
2018-02-06T13:28:14.261Z,94775.48
2018-02-06T13:30:43.341Z,94772.64
2018-02-06T13:33:12.376Z,94767.39
2018-02-06T13:35:41.501Z,94773.44
2018-02-06T13:38:10.484Z,94770.28
2018-02-06T13:40:39.532Z,94766.46
2018-02-06T13:43:08.580Z,94766.31
2018-02-06T13:45:37.616Z,94755.61
2018-02-06T13:48:06.684Z,94758.08
2018-02-06T13:50:35.733Z,94757.44
2018-02-06T13:53:06.800Z,94755.56
2018-02-06T13:55:35.808Z,94755.13
2018-02-06T13:58:04.865Z,94761.70
2018-02-06T14:00:33.897Z,94754.30
2018-02-06T14:03:02.953Z,94767.73
2018-02-06T14:05:38.245Z,94770.55
2018-02-06T14:08:11.675Z,94775.95
2018-02-06T14:10:40.688Z,94765.48
2018-02-06T14:13:09.728Z,94761.30
2018-02-06T14:15:38.859Z,94753.54
2018-02-06T14:18:07.848Z,94745.67
2018-02-06T14:20:36.902Z,94737.01
2018-02-06T14:23:05.963Z,94725.83
2018-02-06T14:25:35.129Z,94725.80
2018-02-06T14:28:04.166Z,94723.30
2018-02-06T14:30:35.202Z,94723.25
2018-02-06T14:33:04.249Z,94735.38
2018-02-06T14:35:33.327Z,94736.42
2018-02-06T14:38:02.359Z,94735.84
2018-02-06T14:43:06.720Z,94738.09
2018-02-06T14:45:35.773Z,94736.89
2018-02-06T14:48:04.808Z,94731.57
2018-02-06T14:50:33.868Z,94723.64
2018-02-06T14:53:02.939Z,94723.11
2018-02-06T14:55:36.261Z,94725.88
2018-02-06T14:58:09.518Z,94719.27
2018-02-06T15:03:14.018Z,94726.57
2018-02-06T15:05:49.099Z,94725.64
2018-02-06T15:08:18.461Z,94732.32
2018-02-06T15:10:47.454Z,94736.98
2018-02-06T15:13:16.493Z,94744.45
2018-02-06T15:15:45.533Z,94747.43
2018-02-06T15:18:14.582Z,94747.14
2018-02-06T15:23:18.975Z,94748.23
2018-02-06T15:25:48.021Z,94752.47
2018-02-06T15:28:17.093Z,94754.83
2018-02-06T15:33:21.457Z,94745.15
2018-02-06T15:35:50.529Z,94746.06
2018-02-06T15:40:54.804Z,94736.77
2018-02-06T15:43:23.849Z,94734.44
2018-02-06T15:45:52.895Z,94726.67
2018-02-06T15:48:21.932Z,94727.26
2018-02-06T15:50:50.985Z,94718.77
2018-02-06T15:53:20.031Z,94719.23
2018-02-06T15:55:49.074Z,94720.92
2018-02-06T16:03:28.535Z,94732.50
2018-02-06T16:06:01.842Z,94732.08
2018-02-06T16:08:31.044Z,94730.95
2018-02-06T16:11:00.116Z,94728.25
2018-02-06T16:13:29.142Z,94723.80
2018-02-06T16:16:00.615Z,94726.77
2018-02-06T16:18:29.653Z,94729.98
2018-02-06T16:20:58.710Z,94724.59
2018-02-06T16:23:27.774Z,94725.67
2018-02-06T16:25:57.706Z,94728.39
2018-02-06T16:28:26.775Z,94726.52
2018-02-06T16:30:55.843Z,94728.23
2018-02-06T16:33:24.884Z,94732.81
2018-02-06T16:35:54.255Z,94734.77
2018-02-06T16:38:23.341Z,94736.81
2018-02-06T16:40:52.393Z,94739.75
2018-02-06T16:46:02.661Z,94732.97
2018-02-06T16:48:32.300Z,94729.53
2018-02-06T16:51:01.335Z,94725.36
2018-02-06T16:53:30.386Z,94732.22
2018-02-06T16:55:59.417Z,94733.45
2018-02-06T16:58:29.489Z,94730.02
2018-02-06T17:00:58.530Z,94737.26
2018-02-06T17:03:27.633Z,94738.41
2018-02-06T17:05:56.700Z,94734.83
2018-02-06T17:08:25.815Z,94738.54
2018-02-06T17:10:54.898Z,94741.80
2018-02-06T17:13:23.949Z,94744.13
2018-02-06T17:15:53.001Z,94746.47
2018-02-06T17:18:25.047Z,94747.17
2018-02-06T17:20:54.098Z,94753.36
2018-02-06T17:23:23.186Z,94755.74
2018-02-06T17:25:52.280Z,94758.15
2018-02-06T17:28:21.286Z,94757.80
2018-02-06T17:30:50.338Z,94759.39
2018-02-06T17:33:19.377Z,94757.55
2018-02-06T17:35:48.437Z,94758.53
2018-02-06T17:38:17.606Z,94756.86
2018-02-06T17:40:46.676Z,94760.45
2018-02-06T17:43:15.746Z,94762.34
2018-02-06T17:45:44.794Z,94759.56
2018-02-06T17:48:13.841Z,94756.73
2018-02-06T17:50:42.881Z,94754.70
2018-02-06T17:53:11.944Z,94758.05
2018-02-06T17:55:41.015Z,94752.89
2018-02-06T17:58:10.073Z,94755.72
2018-02-06T18:00:39.146Z,94753.55
2018-02-06T18:03:08.206Z,94753.01
2018-02-06T18:05:37.264Z,94749.98
2018-02-06T18:08:06.334Z,94753.33
2018-02-06T18:10:35.393Z,94746.23
2018-02-06T18:13:04.469Z,94745.94
2018-02-06T18:15:33.526Z,94742.66
2018-02-06T18:18:02.586Z,94740.03
2018-02-06T18:20:31.638Z,94745.43
2018-02-06T18:23:00.693Z,94747.91
2018-02-06T18:25:29.761Z,94745.02
2018-02-06T18:27:58.843Z,94745.23
2018-02-06T18:30:27.917Z,94744.27
2018-02-06T18:32:56.962Z,94745.42
2018-02-06T18:35:26.026Z,94742.13
2018-02-06T18:37:55.127Z,94741.25
2018-02-06T18:40:24.157Z,94739.97
2018-02-06T18:42:54.096Z,94740.77
2018-02-06T18:45:23.121Z,94738.57
2018-02-06T18:47:52.182Z,94737.17
2018-02-06T18:50:21.237Z,94739.03
2018-02-06T18:52:50.291Z,94739.91
2018-02-06T18:55:19.345Z,94742.91
2018-02-06T18:57:48.422Z,94742.81
2018-02-06T19:00:17.480Z,94740.77
2018-02-06T19:02:46.539Z,94737.41
2018-02-06T19:05:18.239Z,94733.58
2018-02-06T19:07:47.708Z,94735.58
2018-02-06T19:10:16.801Z,94735.98
2018-02-06T19:12:45.929Z,94738.41
2018-02-06T19:15:14.984Z,94740.28
2018-02-06T19:17:44.669Z,94742.22
2018-02-06T19:20:13.824Z,94734.53
2018-02-06T19:22:44.503Z,94732.09
2018-02-06T19:25:15.304Z,94730.50
2018-02-06T19:30:21.193Z,94735.06
2018-02-06T19:32:50.259Z,94732.20
2018-02-06T19:35:19.317Z,94733.66
2018-02-06T19:37:49.352Z,94725.20
2018-02-06T19:40:18.420Z,94725.81
2018-02-06T19:42:47.466Z,94723.16
2018-02-06T19:45:16.530Z,94721.73
2018-02-06T19:47:45.599Z,94722.72
2018-02-06T19:50:14.755Z,94725.59
2018-02-06T19:55:20.025Z,94717.33
2018-02-06T19:57:49.075Z,94710.56
2018-02-06T20:00:18.209Z,94710.31
2018-02-06T20:02:47.361Z,94711.16
2018-02-06T20:07:52.901Z,94713.10
2018-02-06T20:10:22.930Z,94715.06
2018-02-06T20:12:51.966Z,94715.38
2018-02-06T20:15:21.178Z,94713.00
2018-02-06T20:17:52.112Z,94716.12
2018-02-06T20:20:21.218Z,94715.11
2018-02-06T20:22:51.978Z,94722.86
2018-02-06T20:25:21.222Z,94718.61
2018-02-06T20:27:52.166Z,94720.22
2018-02-06T20:30:24.757Z,94717.17
2018-02-06T20:32:53.840Z,94716.58
2018-02-06T20:35:22.920Z,94716.77
2018-02-06T20:37:52.264Z,94709.72
2018-02-06T20:40:21.386Z,94715.83
2018-02-06T20:42:50.502Z,94719.44
2018-02-06T20:45:20.119Z,94722.66
2018-02-06T20:47:49.285Z,94723.45
2018-02-06T20:50:18.342Z,94722.67
2018-02-06T20:52:47.404Z,94718.14
2018-02-06T20:55:17.136Z,94720.39
2018-02-06T20:57:46.175Z,94720.30
2018-02-06T21:00:15.337Z,94716.48
2018-02-06T21:02:44.394Z,94716.11
2018-02-06T21:05:13.548Z,94716.92
2018-02-06T21:07:42.611Z,94710.81
2018-02-06T21:10:12.669Z,94709.25
2018-02-06T21:12:42.550Z,94713.03
2018-02-06T21:15:11.822Z,94712.72
2018-02-06T21:17:41.830Z,94718.66
2018-02-06T21:20:13.183Z,94715.51
2018-02-06T21:22:42.235Z,94717.08
2018-02-06T21:25:11.368Z,94718.73
2018-02-06T21:27:40.607Z,94713.92
2018-02-06T21:30:58.019Z,94719.06
2018-02-06T21:33:27.197Z,94716.50
2018-02-06T21:35:56.363Z,94723.52
2018-02-06T21:38:25.451Z,94728.34
2018-02-06T21:40:55.128Z,94733.27
2018-02-06T21:43:24.191Z,94722.21
2018-02-06T21:45:53.249Z,94724.07
2018-02-06T21:50:57.737Z,94717.14
2018-02-06T21:53:26.844Z,94721.53
2018-02-06T21:58:41.150Z,94709.03
2018-02-06T22:01:16.968Z,94711.34
2018-02-06T22:03:50.136Z,94712.91
2018-02-06T22:06:19.485Z,94705.20
2018-02-06T22:08:49.469Z,94705.41
2018-02-06T22:11:18.681Z,94706.28
2018-02-06T22:13:48.689Z,94702.88
2018-02-06T22:16:17.731Z,94705.41
2018-02-06T22:18:46.865Z,94709.48
2018-02-06T22:21:20.994Z,94702.52
2018-02-06T22:25:35.721Z,94690.37
2018-02-06T22:28:04.797Z,94687.78
2018-02-06T22:30:33.898Z,94685.80
2018-02-06T22:33:02.986Z,94681.73
2018-02-06T22:35:32.040Z,94684.80
2018-02-06T22:38:01.370Z,94682.84
2018-02-06T22:40:30.404Z,94684.52
2018-02-06T22:42:59.494Z,94677.69
2018-02-06T22:45:28.537Z,94674.67
2018-02-06T22:47:57.614Z,94675.61
2018-02-06T22:50:26.654Z,94672.10
2018-02-06T22:52:55.697Z,94672.86
2018-02-06T22:55:29.878Z,94667.75
2018-02-06T22:57:59.665Z,94667.99
2018-02-06T23:00:28.849Z,94670.64
2018-02-06T23:02:58.990Z,94673.39
2018-02-06T23:05:28.144Z,94674.88
2018-02-06T23:07:58.266Z,94671.22
2018-02-06T23:10:27.365Z,94672.67
2018-02-06T23:12:56.442Z,94673.16
2018-02-06T23:15:25.482Z,94670.58
2018-02-06T23:17:54.649Z,94673.81
2018-02-06T23:20:23.708Z,94675.69
2018-02-06T23:22:52.851Z,94677.73
2018-02-06T23:25:21.901Z,94680.81
2018-02-06T23:27:51.938Z,94681.45
2018-02-06T23:30:22.373Z,94683.78
2018-02-06T23:32:53.209Z,94681.52
2018-02-06T23:35:22.460Z,94670.67
2018-02-06T23:37:53.998Z,94667.89
2018-02-06T23:40:23.389Z,94661.91
2018-02-06T23:42:53.357Z,94663.69
2018-02-06T23:45:22.386Z,94661.98
2018-02-06T23:47:51.460Z,94662.92
2018-02-06T23:50:21.274Z,94665.02
2018-02-06T23:52:53.062Z,94665.60
2018-02-06T23:55:22.334Z,94671.33
2018-02-06T23:57:51.401Z,94669.09
